createdAt,value
2022-10-04T00:01:49.067Z,5.40
2022-10-04T00:04:27.655Z,5.60
2022-10-04T00:07:01.034Z,3.80
2022-10-04T00:09:40.548Z,3.70
2022-10-04T00:12:20.222Z,3.80
2022-10-04T00:14:48.763Z,3.00
2022-10-04T00:17:24.081Z,4.70
2022-10-04T00:19:52.561Z,3.90
2022-10-04T00:22:30.883Z,5.30
2022-10-04T00:25:07.190Z,6.90
2022-10-04T00:27:36.599Z,4.10
2022-10-04T00:30:03.512Z,3.40
2022-10-04T00:32:37.041Z,4.80
2022-10-04T00:35:26.538Z,7.20
2022-10-04T00:37:57.285Z,4.60
2022-10-04T00:40:29.775Z,4.60
2022-10-04T00:43:17.483Z,5.00
2022-10-04T00:45:50.927Z,5.80
2022-10-04T00:48:39.915Z,3.30
2022-10-04T00:51:28.226Z,3.20
2022-10-04T00:54:08.476Z,4.40
2022-10-04T00:56:39.026Z,3.80
2022-10-04T00:59:19.449Z,3.90
2022-10-04T01:01:51.181Z,2.20
2022-10-04T01:04:32.977Z,5.20
2022-10-04T01:07:03.090Z,4.70
2022-10-04T01:09:35.365Z,4.60
2022-10-04T01:12:10.407Z,2.70
2022-10-04T01:15:08.328Z,4.70
2022-10-04T01:17:35.327Z,5.10
2022-10-04T01:20:22.279Z,3.20
2022-10-04T01:22:50.204Z,3.90
2022-10-04T01:25:42.849Z,4.00
2022-10-04T01:28:09.899Z,3.40
2022-10-04T01:30:37.382Z,4.20
2022-10-04T01:33:06.446Z,3.60
2022-10-04T01:35:36.913Z,3.60
2022-10-04T01:38:08.818Z,4.20
2022-10-04T01:40:46.166Z,5.60
2022-10-04T01:43:21.161Z,6.40
2022-10-04T01:45:58.017Z,4.70
2022-10-04T01:48:30.739Z,4.50
2022-10-04T01:51:04.255Z,4.70
2022-10-04T01:53:40.521Z,3.90
2022-10-04T01:56:14.670Z,4.90
2022-10-04T01:58:58.661Z,7.10
2022-10-04T02:01:40.595Z,4.70
2022-10-04T02:04:11.079Z,4.60
2022-10-04T02:06:42.405Z,5.00
2022-10-04T02:09:14.122Z,6.90
2022-10-04T02:11:43.958Z,5.10
2022-10-04T02:14:18.659Z,4.60
2022-10-04T02:16:50.276Z,4.80
2022-10-04T02:19:17.396Z,5.10
2022-10-04T02:21:46.202Z,6.40
2022-10-04T02:24:14.061Z,8.10
2022-10-04T02:26:40.937Z,6.20
2022-10-04T02:29:09.611Z,5.50
2022-10-04T02:31:57.931Z,5.70
2022-10-04T02:34:24.944Z,4.60
2022-10-04T02:36:52.060Z,4.90
2022-10-04T02:39:38.369Z,4.80
2022-10-04T02:42:26.836Z,6.10
2022-10-04T02:45:02.297Z,4.80
2022-10-04T02:47:49.640Z,4.80
2022-10-04T02:50:39.582Z,5.40
2022-10-04T02:53:12.327Z,6.50
2022-10-04T02:55:43.101Z,4.80
2022-10-04T02:58:14.782Z,5.50
2022-10-04T03:00:57.196Z,6.50
2022-10-04T03:03:31.320Z,5.70
2022-10-04T03:06:15.026Z,7.00
2022-10-04T03:08:57.609Z,7.30
2022-10-04T03:11:31.305Z,7.10
2022-10-04T03:14:00.498Z,9.20
2022-10-04T03:16:37.863Z,11.20
2022-10-04T03:19:07.086Z,9.30
2022-10-04T03:21:36.663Z,7.30
2022-10-04T03:24:05.857Z,12.30
2022-10-04T03:26:41.766Z,13.00
2022-10-04T03:29:11.924Z,17.40
2022-10-04T03:31:46.767Z,17.50
2022-10-04T03:34:16.905Z,12.00
2022-10-04T03:36:47.191Z,14.10
2022-10-04T03:39:22.096Z,15.70
2022-10-04T03:41:49.084Z,20.20
2022-10-04T03:44:18.477Z,15.10
2022-10-04T03:46:46.197Z,13.40
2022-10-04T03:49:29.975Z,9.30
2022-10-04T03:51:59.018Z,9.30
2022-10-04T03:54:27.525Z,8.90
2022-10-04T03:56:55.930Z,10.90
2022-10-04T03:59:26.089Z,10.90
2022-10-04T04:02:09.018Z,9.70
2022-10-04T04:05:05.258Z,9.80
2022-10-04T04:07:46.351Z,10.10
2022-10-04T04:10:21.342Z,9.20
2022-10-04T04:12:54.623Z,11.80
2022-10-04T04:15:22.091Z,10.10
2022-10-04T04:17:54.142Z,7.80
2022-10-04T04:20:28.979Z,7.10
2022-10-04T04:23:04.891Z,7.60
2022-10-04T04:25:37.559Z,7.90
2022-10-04T04:28:18.797Z,7.40
2022-10-04T04:30:49.811Z,8.60
2022-10-04T04:33:35.164Z,7.80
2022-10-04T04:36:07.333Z,8.70
2022-10-04T04:38:35.070Z,8.70
2022-10-04T04:41:10.739Z,8.50
2022-10-04T04:43:43.530Z,20.90
2022-10-04T04:46:28.087Z,51.90
2022-10-04T04:49:03.798Z,32.00
2022-10-04T04:51:32.785Z,48.90
2022-10-04T04:54:04.632Z,41.70
2022-10-04T04:56:34.779Z,19.30
2022-10-04T04:59:04.700Z,14.50
2022-10-04T05:01:41.475Z,19.10
2022-10-04T05:04:08.441Z,31.40
2022-10-04T05:06:39.460Z,17.50
2022-10-04T05:09:26.026Z,17.00
2022-10-04T05:12:01.417Z,28.70
2022-10-04T05:14:30.919Z,69.60
2022-10-04T05:17:02.140Z,66.10
2022-10-04T05:19:34.867Z,52.60
2022-10-04T05:22:16.548Z,49.70
2022-10-04T05:25:08.604Z,26.40
2022-10-04T05:27:44.756Z,13.00
2022-10-04T05:30:48.964Z,11.20
2022-10-04T05:33:57.738Z,12.10
2022-10-04T05:36:53.447Z,12.00
2022-10-04T05:39:37.349Z,11.80
2022-10-04T05:43:04.978Z,12.50
2022-10-04T05:45:43.485Z,8.30
2022-10-04T05:48:27.965Z,9.00
2022-10-04T07:51:15.293Z,6.10
2022-10-04T07:54:21.784Z,10.70
2022-10-04T07:57:35.649Z,10.70
2022-10-04T08:00:22.150Z,9.20
2022-10-04T08:03:14.884Z,8.60
2022-10-04T08:06:49.939Z,8.00
2022-10-04T08:10:08.422Z,5.50
2022-10-04T08:13:12.497Z,6.60
2022-10-04T08:15:47.426Z,8.30
2022-10-04T08:18:20.529Z,6.80
2022-10-04T08:21:15.712Z,7.10
2022-10-04T08:23:56.839Z,9.20
2022-10-04T08:26:49.804Z,10.20
2022-10-04T08:29:51.817Z,7.10
2022-10-04T08:32:37.609Z,7.00
2022-10-04T08:35:30.787Z,6.80
2022-10-04T08:38:26.873Z,9.60
2022-10-04T08:41:16.121Z,6.90
2022-10-04T08:43:59.312Z,6.10
2022-10-04T08:46:59.072Z,19.40
2022-10-04T08:49:46.494Z,33.90
2022-10-04T08:52:59.390Z,10.50
2022-10-04T08:55:49.192Z,7.80
2022-10-04T08:58:38.671Z,9.00
2022-10-04T09:01:44.261Z,11.30
2022-10-04T09:04:27.260Z,21.90
2022-10-04T09:07:16.876Z,17.80
2022-10-04T09:10:13.350Z,179.80
2022-10-04T09:13:05.902Z,17.10
2022-10-04T09:16:29.699Z,9.40
2022-10-04T09:19:50.110Z,3.70
2022-10-04T09:23:08.909Z,4.40
2022-10-04T09:26:02.092Z,4.50
2022-10-04T09:29:20.672Z,2.20
2022-10-04T09:32:08.091Z,4.20
2022-10-04T09:35:08.689Z,14.90
2022-10-04T09:38:03.478Z,15.80
2022-10-04T09:41:16.519Z,25.80
2022-10-04T09:43:46.867Z,26.20
2022-10-04T09:46:42.011Z,26.40
2022-10-04T09:52:48.646Z,48.50
2022-10-04T09:55:30.784Z,27.30
2022-10-04T09:58:17.342Z,16.10
2022-10-04T10:01:08.426Z,39.80
2022-10-04T10:04:09.600Z,17.60
2022-10-04T10:06:57.940Z,74.30
2022-10-04T10:10:28.076Z,36.90
2022-10-04T10:13:19.738Z,22.60
2022-10-04T10:16:02.897Z,6.80
2022-10-04T10:18:46.141Z,5.60
2022-10-04T10:21:32.285Z,5.90
2022-10-04T10:24:21.009Z,6.70
2022-10-04T10:27:39.099Z,6.70
2022-10-04T10:30:33.738Z,5.30
2022-10-04T10:33:26.712Z,6.50
2022-10-04T10:36:08.388Z,5.20
2022-10-04T10:38:45.972Z,5.40
2022-10-04T10:41:38.434Z,5.30
2022-10-04T10:44:23.611Z,4.30
2022-10-04T10:47:08.097Z,5.80
2022-10-04T10:49:44.225Z,6.60
2022-10-04T10:52:44.429Z,9.30
2022-10-04T10:55:15.255Z,7.60
2022-10-04T10:58:16.097Z,7.40
2022-10-04T11:00:58.929Z,7.70
2022-10-04T11:03:57.265Z,7.90
2022-10-04T11:06:42.296Z,11.70
2022-10-04T11:09:30.362Z,6.60
2022-10-04T11:12:02.022Z,4.60
2022-10-04T11:15:08.881Z,9.00
2022-10-04T11:17:56.011Z,4.10
2022-10-04T11:20:51.485Z,6.30
2022-10-04T11:23:40.030Z,7.10
2022-10-04T11:26:26.403Z,6.40
2022-10-04T11:29:12.224Z,5.50
2022-10-04T11:32:20.509Z,3.70
2022-10-04T11:35:28.945Z,5.10
2022-10-04T11:38:06.660Z,2.70
2022-10-04T11:40:39.886Z,3.60
2022-10-04T11:43:31.562Z,2.50
2022-10-04T11:46:35.594Z,3.40
2022-10-04T11:49:11.660Z,5.80
2022-10-04T11:52:07.581Z,6.30
2022-10-04T11:55:36.869Z,2.30
2022-10-04T11:58:15.608Z,2.10
2022-10-04T12:01:14.948Z,3.50
2022-10-04T12:04:12.430Z,6.50
2022-10-04T12:06:42.790Z,3.30
2022-10-04T12:09:20.198Z,3.50
2022-10-04T12:12:37.816Z,3.80
2022-10-04T12:15:40.562Z,5.10
2022-10-04T12:18:46.934Z,3.70
2022-10-04T12:21:51.874Z,4.10
2022-10-04T12:24:21.324Z,5.40
2022-10-04T12:27:07.310Z,4.10
2022-10-04T12:30:04.213Z,4.60
2022-10-04T12:32:39.567Z,3.80
2022-10-04T12:35:44.296Z,2.50
2022-10-04T12:38:32.192Z,2.90
2022-10-04T12:41:24.520Z,4.00
2022-10-04T12:44:12.319Z,3.30
2022-10-04T12:46:57.773Z,2.40
2022-10-04T12:49:46.138Z,11.40
2022-10-04T12:52:20.724Z,5.60
2022-10-04T12:55:17.294Z,4.60
2022-10-04T12:58:22.292Z,7.10
2022-10-04T13:00:53.105Z,2.50
2022-10-04T13:03:59.710Z,1.50
2022-10-04T13:06:43.818Z,2.80
2022-10-04T13:09:20.204Z,3.40
2022-10-04T13:12:02.897Z,4.10
2022-10-04T13:15:03.925Z,4.30
2022-10-04T13:17:50.863Z,6.40
2022-10-04T13:20:45.357Z,6.60
2022-10-04T13:23:24.617Z,8.30
2022-10-04T13:25:58.778Z,11.10
2022-10-04T13:28:48.092Z,11.20
2022-10-04T13:31:34.696Z,7.00
2022-10-04T13:34:11.423Z,10.30
2022-10-04T13:36:45.705Z,8.50
2022-10-04T13:39:27.954Z,10.10
2022-10-04T13:42:34.157Z,6.20
2022-10-04T13:45:17.929Z,6.50
2022-10-04T13:47:59.979Z,6.90
2022-10-04T13:50:32.444Z,5.70
2022-10-04T13:53:36.818Z,5.30
2022-10-04T13:56:34.051Z,5.10
2022-10-04T13:59:08.879Z,6.60
2022-10-04T14:01:41.781Z,8.30
2022-10-04T14:04:30.492Z,5.40
2022-10-04T14:07:17.614Z,7.50
2022-10-04T14:09:53.549Z,4.30
2022-10-04T14:12:44.644Z,4.20
2022-10-04T14:15:59.561Z,6.10
2022-10-04T14:18:35.583Z,5.30
2022-10-04T14:21:25.891Z,7.40
2022-10-04T14:23:59.926Z,12.10
2022-10-04T14:26:51.562Z,8.00
2022-10-04T14:29:45.893Z,8.80
2022-10-04T14:32:35.147Z,5.90
2022-10-04T14:35:11.031Z,8.50
2022-10-04T14:41:06.326Z,14.10
2022-10-04T14:43:58.386Z,16.70
2022-10-04T14:46:31.460Z,12.60
2022-10-04T14:49:27.263Z,9.20
2022-10-04T14:52:35.968Z,9.20
2022-10-04T14:55:32.958Z,8.00
2022-10-04T14:58:16.231Z,7.50
2022-10-04T15:01:18.269Z,8.20
2022-10-04T15:04:16.297Z,8.10
2022-10-04T15:07:01.550Z,9.80
2022-10-04T15:09:56.554Z,11.50
2022-10-04T15:13:14.440Z,14.30
2022-10-04T15:15:50.227Z,10.70
2022-10-04T15:18:30.633Z,18.70
2022-10-04T15:21:33.335Z,17.00
2022-10-04T15:24:13.378Z,21.00
2022-10-04T15:26:49.431Z,23.70
2022-10-04T15:29:45.400Z,23.30
2022-10-04T15:32:46.583Z,33.10
2022-10-04T15:35:34.585Z,36.90
2022-10-04T15:38:24.591Z,31.00
2022-10-04T15:41:29.146Z,26.60
2022-10-04T15:44:14.748Z,29.60
2022-10-04T15:46:56.707Z,29.90
2022-10-04T15:49:41.814Z,27.50
2022-10-04T15:52:44.209Z,32.00
2022-10-04T15:56:02.051Z,31.30
2022-10-04T15:58:53.373Z,29.90
2022-10-04T16:01:30.056Z,26.00
2022-10-04T16:04:15.809Z,26.80
2022-10-04T16:06:55.205Z,28.90
2022-10-04T16:09:24.586Z,28.90
2022-10-04T16:12:20.258Z,32.00
2022-10-04T16:14:47.400Z,37.10
2022-10-04T16:17:45.986Z,76.30
2022-10-04T16:20:54.742Z,67.90
2022-10-04T16:23:26.001Z,76.50
2022-10-04T16:26:02.829Z,63.90
2022-10-04T16:28:41.661Z,59.40
2022-10-04T16:31:20.101Z,57.10
2022-10-04T16:34:26.235Z,50.00
2022-10-04T16:37:16.222Z,51.60
2022-10-04T16:40:01.189Z,40.20
2022-10-04T16:42:53.467Z,39.00
2022-10-04T16:46:05.994Z,35.60
2022-10-04T16:48:37.106Z,26.30
2022-10-04T16:51:15.830Z,25.70
2022-10-04T16:54:00.835Z,22.50
2022-10-04T16:56:50.240Z,24.30
2022-10-04T16:59:37.595Z,18.20
2022-10-04T17:02:23.242Z,18.20
2022-10-04T17:05:22.137Z,13.80
2022-10-04T17:08:16.470Z,17.00
2022-10-04T17:10:49.217Z,22.50
2022-10-04T17:13:34.196Z,24.70
2022-10-04T17:16:07.066Z,30.20
2022-10-04T17:18:51.247Z,24.20
2022-10-04T17:21:45.634Z,20.60
2022-10-04T17:24:24.221Z,16.10
2022-10-04T17:27:29.180Z,13.10
2022-10-04T17:30:16.500Z,21.50
2022-10-04T17:32:46.202Z,12.10
2022-10-04T17:35:27.906Z,10.30
2022-10-04T17:38:05.632Z,10.70
2022-10-04T17:41:13.891Z,12.20
2022-10-04T17:43:45.977Z,18.20
2022-10-04T17:46:23.722Z,13.30
2022-10-04T17:49:20.049Z,15.10
2022-10-04T17:52:11.866Z,14.20
2022-10-04T17:55:01.137Z,12.50
2022-10-04T17:57:42.324Z,12.10
2022-10-04T18:00:15.673Z,11.40
2022-10-04T18:02:54.684Z,12.40
2022-10-04T18:05:28.459Z,9.60
2022-10-04T18:08:05.649Z,10.50
2022-10-04T18:10:38.120Z,11.80
2022-10-04T18:13:25.078Z,10.50
2022-10-04T18:15:56.793Z,12.80
2022-10-04T18:18:29.441Z,13.00
2022-10-04T18:20:56.132Z,12.90
2022-10-04T18:23:28.376Z,9.80
2022-10-04T18:26:02.545Z,13.20
2022-10-04T18:28:32.095Z,13.50
2022-10-04T18:31:12.816Z,40.80
2022-10-04T18:33:39.582Z,26.40
2022-10-04T18:36:21.813Z,22.20
2022-10-04T18:39:13.791Z,16.80
2022-10-04T18:42:15.744Z,19.90
2022-10-04T18:44:50.812Z,16.50
2022-10-04T18:47:37.518Z,11.40
2022-10-04T18:50:21.725Z,8.30
2022-10-04T18:53:00.635Z,11.10
2022-10-04T18:55:45.764Z,10.90
2022-10-04T18:58:39.646Z,16.20
2022-10-04T19:01:59.767Z,14.30
2022-10-04T19:04:56.477Z,14.00
2022-10-04T19:07:39.050Z,17.90
2022-10-04T19:10:11.105Z,16.30
2022-10-04T19:12:45.708Z,17.20
2022-10-04T19:15:37.469Z,15.70
2022-10-04T19:18:24.566Z,10.50
2022-10-04T19:21:00.305Z,9.70
2022-10-04T19:23:33.396Z,7.80
2022-10-04T19:26:31.760Z,11.60
2022-10-04T19:29:20.914Z,10.10
2022-10-04T19:31:59.204Z,6.20
2022-10-04T19:34:31.912Z,7.00
2022-10-04T19:37:05.270Z,10.70
2022-10-04T19:39:45.106Z,9.30
2022-10-04T19:42:23.477Z,8.60
2022-10-04T19:45:14.579Z,8.20
2022-10-04T19:47:57.270Z,8.60
2022-10-04T19:50:30.757Z,4.80
2022-10-04T19:53:16.029Z,5.10
2022-10-04T19:55:51.889Z,6.90
2022-10-04T19:58:26.701Z,6.20
2022-10-04T20:00:54.671Z,7.60
2022-10-04T20:03:22.092Z,4.40
2022-10-04T20:05:52.700Z,9.80
2022-10-04T20:08:47.676Z,6.60
2022-10-04T20:13:52.319Z,5.10
2022-10-04T20:16:54.024Z,4.50
2022-10-04T20:19:37.357Z,3.80
2022-10-04T20:22:07.113Z,7.10
2022-10-04T20:24:37.088Z,6.60
2022-10-04T20:27:06.367Z,7.10
2022-10-04T20:29:36.254Z,3.70
2022-10-04T20:32:06.628Z,3.00
2022-10-04T20:34:37.522Z,5.90
2022-10-04T20:37:08.820Z,6.50
2022-10-04T20:39:42.821Z,5.30
2022-10-04T20:42:31.097Z,7.50
2022-10-04T20:45:09.880Z,5.90
2022-10-04T20:47:48.500Z,3.50
2022-10-04T20:50:19.494Z,4.60
2022-10-04T20:52:58.409Z,3.50
2022-10-04T20:55:39.483Z,5.60
2022-10-04T20:58:24.496Z,4.50
2022-10-04T21:00:53.823Z,7.00
2022-10-04T21:03:21.594Z,3.40
2022-10-04T21:06:02.755Z,3.10
2022-10-04T21:08:30.563Z,3.60
2022-10-04T21:11:20.672Z,3.30
2022-10-04T21:13:49.215Z,3.80
2022-10-04T21:16:39.341Z,3.60
2022-10-04T21:19:42.459Z,3.40
2022-10-04T21:22:09.022Z,7.20
2022-10-04T21:24:52.573Z,5.20
2022-10-04T21:27:28.415Z,4.60
2022-10-04T21:29:56.390Z,6.00
2022-10-04T21:32:25.015Z,4.40
2022-10-04T21:34:54.183Z,6.80
2022-10-04T21:37:22.310Z,5.90
2022-10-04T21:39:49.386Z,3.10
2022-10-04T21:42:16.266Z,6.50
2022-10-04T21:44:43.392Z,3.90
2022-10-04T21:47:10.869Z,5.50
2022-10-04T21:49:37.645Z,2.80
2022-10-04T21:52:04.941Z,4.80
2022-10-04T21:54:31.813Z,3.10
2022-10-04T21:56:58.657Z,5.90
2022-10-04T21:59:25.389Z,5.10
2022-10-04T22:01:52.590Z,3.70
2022-10-04T22:04:19.671Z,5.20
2022-10-04T22:06:46.728Z,5.10
2022-10-04T22:09:13.748Z,3.50
2022-10-04T22:11:40.792Z,5.10
2022-10-04T22:14:07.793Z,5.20
2022-10-04T22:16:34.670Z,4.90
2022-10-04T22:19:01.456Z,3.30
2022-10-04T22:21:28.333Z,5.40
2022-10-04T22:23:55.893Z,6.10
2022-10-04T22:26:25.464Z,3.20
2022-10-04T22:28:55.257Z,3.20
2022-10-04T22:31:28.139Z,7.50
2022-10-04T22:33:55.755Z,4.00
2022-10-04T22:36:26.864Z,8.90
2022-10-04T22:38:59.954Z,3.90
2022-10-04T22:41:30.604Z,3.70
2022-10-04T22:44:02.376Z,3.50
2022-10-04T22:46:38.529Z,2.50
2022-10-04T22:49:11.238Z,3.20
2022-10-04T22:51:40.824Z,2.90
2022-10-04T22:54:17.142Z,3.30
2022-10-04T22:56:44.565Z,3.40
2022-10-04T22:59:19.018Z,5.00
2022-10-04T23:04:24.478Z,2.70
2022-10-04T23:06:52.773Z,4.20
2022-10-04T23:09:20.042Z,4.30
2022-10-04T23:11:46.946Z,4.70
2022-10-04T23:14:14.220Z,3.10
2022-10-04T23:16:42.273Z,3.00
2022-10-04T23:19:11.870Z,5.10
2022-10-04T23:21:42.901Z,2.30
2022-10-04T23:24:12.364Z,2.70
2022-10-04T23:26:40.297Z,4.00
2022-10-04T23:29:18.395Z,2.50
2022-10-04T23:31:46.813Z,6.40
2022-10-04T23:34:19.751Z,2.70
2022-10-04T23:36:48.960Z,2.70
2022-10-04T23:39:30.738Z,6.00
2022-10-04T23:41:58.237Z,5.40
2022-10-04T23:44:33.128Z,4.10
2022-10-04T23:47:00.962Z,7.10
2022-10-04T23:49:28.234Z,3.90
2022-10-04T23:52:01.311Z,5.30
2022-10-04T23:54:28.726Z,4.30
2022-10-04T23:56:55.359Z,5.20
2022-10-04T23:59:24.668Z,4.60
